Monte Sereno, California
Current Conditions -  °F | °C
As of 9:47 PM on Saturday 20 Dec 2014 (Local Time) from KRHV Reporting Station
Broken Clouds Broken Clouds  
Wind Chill: 61°   Ceiling: 3000
Heat Index: 61°   Visibility: 10mi
Dew Point: 52°   Wind: 0mph
Humidity: 72%   Direction: NA
Pressure: 30.26"   Gusts: NA
Location:  37.1624°N, 121.959°W
Report Text: KRHV 210547Z 00000KT 10SM BKN030 16/11 A3026 RMK LAST
Loading
Personal Weather Stations






























Interactive Weather Map New forecast layout! Learn more

10-Day Weather Forecast

Advertisements
Track Severe Weather on mobile